createdAt,value
2023-05-04T00:00:39.685Z,11.35
2023-05-04T00:01:39.746Z,10.93
2023-05-04T00:02:39.917Z,10.87
2023-05-04T00:03:39.936Z,11.53
2023-05-04T00:04:39.814Z,11.64
2023-05-04T00:05:39.860Z,11.55
2023-05-04T00:06:39.869Z,12.22
2023-05-04T00:07:39.925Z,12.45
2023-05-04T00:08:39.951Z,12.13
2023-05-04T00:09:39.966Z,11.55
2023-05-04T00:10:40.005Z,11.04
2023-05-04T00:11:40.061Z,11.15
2023-05-04T00:12:40.126Z,10.72
2023-05-04T00:13:40.096Z,10.75
2023-05-04T00:14:40.146Z,10.87
2023-05-04T00:15:40.152Z,11.38
2023-05-04T00:16:40.379Z,12.46
2023-05-04T00:17:40.268Z,12.44
2023-05-04T00:18:40.257Z,12.44
2023-05-04T00:19:40.274Z,12.03
2023-05-04T00:20:40.291Z,11.10
2023-05-04T00:21:40.306Z,10.56
2023-05-04T00:22:40.363Z,9.54
2023-05-04T00:23:40.374Z,9.86
2023-05-04T00:24:40.417Z,9.66
2023-05-04T00:25:40.448Z,9.26
2023-05-04T00:26:40.498Z,9.35
2023-05-04T00:27:40.529Z,9.48
2023-05-04T00:28:40.546Z,9.28
2023-05-04T00:29:40.625Z,9.32
2023-05-04T00:30:40.626Z,9.51
2023-05-04T00:31:40.736Z,10.09
2023-05-04T00:32:40.734Z,9.97
2023-05-04T00:33:40.744Z,10.66
2023-05-04T00:34:40.793Z,11.34
2023-05-04T00:35:40.818Z,11.60
2023-05-04T00:36:40.872Z,11.98
2023-05-04T00:37:40.959Z,11.72
2023-05-04T00:38:40.972Z,10.84
2023-05-04T00:39:41.024Z,10.57
2023-05-04T00:40:41.047Z,10.69
2023-05-04T00:41:41.087Z,11.02
2023-05-04T00:42:41.131Z,10.65
2023-05-04T00:43:41.165Z,10.23
2023-05-04T00:44:41.222Z,10.11
2023-05-04T00:45:41.215Z,9.99
2023-05-04T00:46:41.292Z,9.74
2023-05-04T00:47:41.367Z,9.99
2023-05-04T00:48:41.309Z,9.73
2023-05-04T00:49:41.357Z,9.85
2023-05-04T00:50:41.418Z,9.79
2023-05-04T00:51:41.429Z,9.90
2023-05-04T00:52:41.443Z,10.62
2023-05-04T00:53:41.487Z,10.71
2023-05-04T00:54:41.511Z,11.36
2023-05-04T00:55:41.519Z,11.23
2023-05-04T00:56:41.575Z,12.00
2023-05-04T00:57:41.589Z,12.74
2023-05-04T00:58:41.675Z,13.11
2023-05-04T00:59:41.675Z,13.11
2023-05-04T01:00:41.749Z,12.68
2023-05-04T01:01:41.767Z,13.04
2023-05-04T01:02:41.894Z,13.25
2023-05-04T01:03:41.848Z,13.59
2023-05-04T01:04:41.860Z,13.38
2023-05-04T01:05:41.884Z,13.09
2023-05-04T01:06:41.900Z,12.57
2023-05-04T01:07:41.945Z,13.14
2023-05-04T01:08:41.979Z,13.81
2023-05-04T01:09:42.026Z,13.43
2023-05-04T01:10:42.052Z,12.74
2023-05-04T01:11:42.101Z,11.80
2023-05-04T01:12:42.149Z,11.50
2023-05-04T01:13:42.198Z,10.59
2023-05-04T01:14:42.221Z,10.06
2023-05-04T01:15:42.277Z,10.29
2023-05-04T01:16:42.343Z,10.60
2023-05-04T01:17:42.407Z,11.00
2023-05-04T01:18:42.408Z,11.24
2023-05-04T01:19:42.455Z,11.87
2023-05-04T01:20:42.451Z,13.48
2023-05-04T01:21:42.501Z,14.74
2023-05-04T01:22:42.561Z,15.11
2023-05-04T01:23:42.605Z,16.21
2023-05-04T01:24:42.647Z,16.96
2023-05-04T01:25:42.688Z,17.54
2023-05-04T01:26:42.720Z,17.13
2023-05-04T01:27:42.768Z,17.64
2023-05-04T01:28:42.813Z,17.57
2023-05-04T01:29:42.834Z,18.25
2023-05-04T01:30:42.882Z,18.36
2023-05-04T01:31:42.908Z,17.94
2023-05-04T01:32:42.960Z,17.47
2023-05-04T01:33:42.980Z,17.23
2023-05-04T01:34:42.970Z,18.23
2023-05-04T01:35:42.998Z,22.29
2023-05-04T01:36:43.026Z,25.65
2023-05-04T01:37:43.070Z,27.15
2023-05-04T01:38:43.128Z,24.68
2023-05-04T01:39:43.156Z,20.71
2023-05-04T01:40:43.232Z,18.15
2023-05-04T01:41:43.251Z,16.85
2023-05-04T01:42:43.310Z,16.26
2023-05-04T01:43:43.317Z,15.66
2023-05-04T01:44:43.357Z,14.78
2023-05-04T01:45:43.384Z,14.01
2023-05-04T01:46:43.476Z,13.84
2023-05-04T01:47:43.484Z,13.56
2023-05-04T01:48:43.523Z,13.65
2023-05-04T01:49:43.525Z,13.32
2023-05-04T01:50:43.555Z,13.07
2023-05-04T01:51:43.604Z,13.36
2023-05-04T01:52:43.598Z,12.81
2023-05-04T01:53:43.656Z,12.91
2023-05-04T01:54:43.716Z,12.50
2023-05-04T01:55:43.742Z,12.03
2023-05-04T01:56:43.898Z,11.93
2023-05-04T01:57:43.911Z,11.91
2023-05-04T01:58:43.870Z,11.98
2023-05-04T01:59:43.920Z,13.74
2023-05-04T02:00:43.922Z,14.57
2023-05-04T02:01:44.003Z,15.10
2023-05-04T02:02:44.100Z,17.13
2023-05-04T02:03:44.165Z,17.83
2023-05-04T02:04:44.111Z,17.17
2023-05-04T02:05:44.086Z,17.08
2023-05-04T02:06:44.152Z,16.25
2023-05-04T02:07:44.191Z,14.81
2023-05-04T02:08:44.253Z,14.59
2023-05-04T02:09:44.277Z,13.90
2023-05-04T02:10:44.295Z,13.23
2023-05-04T02:11:44.346Z,13.09
2023-05-04T02:12:44.390Z,11.94
2023-05-04T02:13:44.443Z,11.87
2023-05-04T02:14:44.491Z,11.89
2023-05-04T02:15:44.569Z,11.81
2023-05-04T02:16:44.568Z,11.96
2023-05-04T02:17:44.646Z,12.19
2023-05-04T02:18:44.643Z,11.95
2023-05-04T02:19:44.672Z,12.25
2023-05-04T02:20:44.721Z,12.76
2023-05-04T02:21:44.759Z,13.23
2023-05-04T02:22:44.804Z,13.00
2023-05-04T02:23:44.948Z,13.05
2023-05-04T02:24:44.883Z,12.44
2023-05-04T02:25:44.943Z,12.18
2023-05-04T02:26:44.993Z,11.80
2023-05-04T02:27:45.036Z,11.47
2023-05-04T02:28:45.067Z,11.25
2023-05-04T02:29:45.092Z,11.28
2023-05-04T02:30:45.134Z,11.82
2023-05-04T02:31:45.221Z,12.61
2023-05-04T02:32:45.234Z,12.88
2023-05-04T02:33:46.102Z,12.24
2023-05-04T02:34:45.321Z,11.91
2023-05-04T02:35:45.326Z,11.88
2023-05-04T02:36:45.358Z,12.27
2023-05-04T02:37:45.374Z,13.03
2023-05-04T02:38:45.422Z,13.40
2023-05-04T02:39:45.449Z,13.75
2023-05-04T02:40:45.496Z,13.10
2023-05-04T02:41:45.524Z,12.62
2023-05-04T02:42:45.559Z,12.62
2023-05-04T02:43:45.584Z,12.17
2023-05-04T02:44:45.615Z,12.84
2023-05-04T02:45:45.732Z,12.90
2023-05-04T02:46:45.703Z,12.80
2023-05-04T02:47:45.797Z,12.37
2023-05-04T02:48:45.751Z,12.04
2023-05-04T02:49:45.753Z,11.79
2023-05-04T02:50:45.809Z,12.18
2023-05-04T02:51:45.873Z,13.59
2023-05-04T02:52:45.885Z,14.57
2023-05-04T02:53:45.895Z,14.25
2023-05-04T02:54:45.977Z,13.82
2023-05-04T02:55:45.981Z,12.32
2023-05-04T02:56:46.032Z,12.41
2023-05-04T02:57:46.081Z,11.84
2023-05-04T02:58:46.090Z,11.56
2023-05-04T02:59:46.121Z,11.40
2023-05-04T03:00:46.145Z,12.00
2023-05-04T03:01:46.284Z,12.66
2023-05-04T03:02:46.330Z,12.90
2023-05-04T03:03:46.338Z,13.04
2023-05-04T03:04:46.382Z,12.56
2023-05-04T03:05:46.373Z,12.08
2023-05-04T03:06:46.439Z,11.48
2023-05-04T03:07:46.460Z,11.84
2023-05-04T03:08:46.511Z,12.47
2023-05-04T03:09:47.682Z,14.39
2023-05-04T03:10:46.583Z,14.24
2023-05-04T03:11:46.571Z,13.70
2023-05-04T03:12:46.650Z,13.47
2023-05-04T03:13:46.664Z,12.95
2023-05-04T03:14:46.728Z,12.92
2023-05-04T03:15:46.764Z,13.14
2023-05-04T03:16:46.919Z,14.73
2023-05-04T03:17:46.876Z,15.47
2023-05-04T03:18:57.678Z,15.54
2023-05-04T03:19:46.851Z,15.56
2023-05-04T03:20:46.833Z,13.98
2023-05-04T03:21:46.836Z,14.63
2023-05-04T03:22:46.836Z,15.55
2023-05-04T03:23:46.817Z,16.02
2023-05-04T03:24:46.820Z,16.01
2023-05-04T03:25:46.838Z,14.90
2023-05-04T03:26:46.802Z,14.06
2023-05-04T03:27:46.796Z,13.10
2023-05-04T03:28:46.791Z,13.02
2023-05-04T03:29:46.794Z,12.54
2023-05-04T03:30:46.768Z,11.97
2023-05-04T03:31:46.800Z,11.16
2023-05-04T03:32:46.794Z,11.37
2023-05-04T03:33:46.771Z,11.27
2023-05-04T03:34:46.771Z,11.26
2023-05-04T03:35:46.817Z,11.35
2023-05-04T03:36:46.834Z,11.31
2023-05-04T03:37:46.896Z,11.21
2023-05-04T03:38:46.891Z,10.96
2023-05-04T03:39:46.936Z,11.04
2023-05-04T03:40:46.977Z,11.71
2023-05-04T03:41:46.991Z,11.49
2023-05-04T03:42:47.025Z,11.83
2023-05-04T03:43:47.150Z,11.52
2023-05-04T03:44:47.055Z,12.08
2023-05-04T03:45:47.102Z,12.41
2023-05-04T03:46:47.134Z,13.23
2023-05-04T03:47:47.219Z,12.73
2023-05-04T03:48:47.205Z,12.69
2023-05-04T03:49:47.236Z,13.12
2023-05-04T03:50:47.281Z,13.10
2023-05-04T03:51:47.304Z,13.09
2023-05-04T03:52:47.351Z,13.21
2023-05-04T03:53:47.385Z,13.43
2023-05-04T03:54:47.421Z,14.24
2023-05-04T03:55:47.465Z,14.42
2023-05-04T03:56:47.482Z,14.53
2023-05-04T03:57:47.482Z,14.55
2023-05-04T03:58:47.538Z,14.84
2023-05-04T03:59:47.604Z,15.55
2023-05-04T04:00:47.631Z,15.53
2023-05-04T04:01:47.636Z,15.53
2023-05-04T04:02:47.802Z,15.41
2023-05-04T04:03:47.792Z,15.05
2023-05-04T04:04:47.831Z,15.74
2023-05-04T04:05:47.818Z,15.60
2023-05-04T04:06:47.863Z,15.51
2023-05-04T04:07:47.874Z,15.15
2023-05-04T04:08:47.906Z,15.04
2023-05-04T04:09:47.944Z,15.04
2023-05-04T04:10:47.973Z,15.05
2023-05-04T04:11:48.014Z,15.54
2023-05-04T04:12:48.102Z,15.82
2023-05-04T04:13:48.080Z,16.08
2023-05-04T04:14:48.129Z,16.44
2023-05-04T04:15:48.165Z,16.07
2023-05-04T04:16:48.239Z,15.94
2023-05-04T04:17:48.297Z,15.99
2023-05-04T04:18:48.242Z,17.06
2023-05-04T04:19:48.269Z,17.14
2023-05-04T04:20:48.282Z,17.72
2023-05-04T04:21:48.311Z,18.19
2023-05-04T04:22:48.347Z,17.37
2023-05-04T04:23:48.392Z,14.95
2023-05-04T04:24:48.426Z,13.93
2023-05-04T04:25:48.457Z,13.07
2023-05-04T04:26:48.503Z,12.59
2023-05-04T04:27:48.535Z,12.15
2023-05-04T04:28:48.570Z,12.82
2023-05-04T04:29:48.596Z,13.43
2023-05-04T04:30:48.615Z,14.72
2023-05-04T04:31:48.710Z,16.29
2023-05-04T04:32:48.726Z,16.39
2023-05-04T04:33:48.730Z,16.77
2023-05-04T04:34:48.761Z,17.18
2023-05-04T04:35:48.799Z,17.49
2023-05-04T04:36:48.844Z,18.80
2023-05-04T04:37:48.907Z,20.74
2023-05-04T04:38:48.949Z,21.69
2023-05-04T04:39:48.971Z,23.65
2023-05-04T04:40:49.009Z,24.51
2023-05-04T04:41:49.051Z,25.01
2023-05-04T04:42:49.102Z,25.00
2023-05-04T04:43:49.127Z,24.99
2023-05-04T04:44:49.176Z,24.65
2023-05-04T04:45:49.180Z,24.91
2023-05-04T04:46:49.286Z,24.77
2023-05-04T04:47:49.358Z,23.59
2023-05-04T04:48:49.274Z,22.84
2023-05-04T04:49:49.277Z,22.63
2023-05-04T04:50:49.325Z,21.60
2023-05-04T04:51:49.352Z,22.53
2023-05-04T04:52:49.377Z,24.75
2023-05-04T04:53:49.429Z,26.83
2023-05-04T04:54:49.441Z,26.49
2023-05-04T04:55:49.497Z,25.30
2023-05-04T04:56:49.530Z,23.10
2023-05-04T04:57:49.549Z,22.17
2023-05-04T04:58:49.566Z,21.31
2023-05-04T04:59:49.656Z,19.91
2023-05-04T05:00:49.651Z,20.01
2023-05-04T05:01:49.640Z,21.47
2023-05-04T05:02:49.665Z,21.10
2023-05-04T05:03:49.724Z,20.73
2023-05-04T05:04:49.792Z,20.24
2023-05-04T05:05:49.750Z,20.16
2023-05-04T05:06:49.838Z,20.78
2023-05-04T05:07:49.846Z,20.63
2023-05-04T05:08:49.879Z,21.26
2023-05-04T05:09:49.939Z,21.95
2023-05-04T05:10:50.022Z,22.05
2023-05-04T05:11:50.044Z,22.55
2023-05-04T05:12:50.115Z,23.75
2023-05-04T05:13:50.144Z,24.18
2023-05-04T05:14:50.207Z,25.01
2023-05-04T05:15:50.229Z,26.62
2023-05-04T05:16:50.319Z,28.13
2023-05-04T05:17:50.368Z,28.99
2023-05-04T05:18:50.340Z,30.05
2023-05-04T05:19:50.451Z,31.02
2023-05-04T05:20:50.417Z,31.24
2023-05-04T05:21:50.412Z,33.15
2023-05-04T05:22:50.443Z,34.11
2023-05-04T05:23:50.463Z,34.72
2023-05-04T05:24:50.523Z,36.44
2023-05-04T05:25:50.571Z,36.59
2023-05-04T05:26:50.619Z,34.73
2023-05-04T05:27:50.623Z,33.31
2023-05-04T05:28:50.641Z,33.53
2023-05-04T05:29:50.732Z,35.63
2023-05-04T05:30:50.732Z,38.99
2023-05-04T05:31:50.789Z,38.81
2023-05-04T05:32:51.209Z,39.05
2023-05-04T05:33:50.802Z,45.65
2023-05-04T05:34:50.804Z,58.62
2023-05-04T05:35:50.847Z,61.58
2023-05-04T05:36:50.868Z,64.23
2023-05-04T05:37:51.203Z,64.28
2023-05-04T05:38:50.927Z,64.37
2023-05-04T05:39:50.954Z,66.86
2023-05-04T05:40:50.967Z,69.09
2023-05-04T05:41:51.040Z,68.99
2023-05-04T05:42:51.200Z,74.85
2023-05-04T05:43:51.118Z,79.36
2023-05-04T05:44:51.158Z,84.50
2023-05-04T05:45:51.256Z,88.66
2023-05-04T05:46:51.244Z,91.62
2023-05-04T05:47:51.358Z,97.14
2023-05-04T05:48:51.310Z,101.64
2023-05-04T05:49:51.365Z,108.22
2023-05-04T05:50:51.381Z,114.35
2023-05-04T05:51:51.417Z,120.80
2023-05-04T05:52:51.457Z,125.46
2023-05-04T05:53:51.478Z,132.25
2023-05-04T05:54:51.522Z,143.55
2023-05-04T05:55:51.536Z,155.01
2023-05-04T05:56:51.566Z,169.72
2023-05-04T05:57:51.586Z,176.98
2023-05-04T05:58:51.630Z,182.44
2023-05-04T05:59:51.664Z,182.71
2023-05-04T06:00:51.695Z,195.06
2023-05-04T06:01:51.718Z,192.38
2023-05-04T06:02:51.846Z,186.15
2023-05-04T06:03:51.883Z,184.39
2023-05-04T06:04:51.895Z,183.22
2023-05-04T06:05:51.858Z,184.16
2023-05-04T06:06:51.880Z,185.34
2023-05-04T06:07:51.920Z,184.46
2023-05-04T06:08:51.940Z,186.91
2023-05-04T06:09:51.953Z,181.78
2023-05-04T06:10:52.006Z,187.79
2023-05-04T06:11:54.747Z,189.17
2023-05-04T06:12:52.106Z,195.99
2023-05-04T06:13:52.051Z,192.05
2023-05-04T06:14:52.025Z,196.53
2023-05-04T06:15:52.036Z,200.21
2023-05-04T06:16:52.000Z,204.06
2023-05-04T06:17:52.027Z,204.93
2023-05-04T06:18:51.994Z,201.81
2023-05-04T06:19:52.003Z,198.33
2023-05-04T06:20:51.994Z,198.34
2023-05-04T06:21:51.986Z,202.38
2023-05-04T06:22:51.986Z,213.90
2023-05-04T06:23:51.953Z,215.35
2023-05-04T06:24:53.709Z,229.66
2023-05-04T06:25:51.956Z,230.22
2023-05-04T06:26:51.958Z,232.56
2023-05-04T06:27:51.933Z,234.12
2023-05-04T06:28:51.940Z,230.19
2023-05-04T06:29:51.931Z,228.64
2023-05-04T06:30:51.917Z,227.34
2023-05-04T06:31:51.916Z,215.09
2023-05-04T06:32:52.254Z,173.86
2023-05-04T06:33:51.875Z,128.43
2023-05-04T06:34:51.887Z,108.34
2023-05-04T06:35:51.862Z,114.54
2023-05-04T06:36:51.876Z,123.32
2023-05-04T06:37:52.241Z,112.60
2023-05-04T06:38:51.840Z,111.16
2023-05-04T06:39:51.834Z,92.55
2023-05-04T06:40:51.828Z,88.82
2023-05-04T06:41:51.816Z,90.57
2023-05-04T06:42:51.836Z,90.03
2023-05-04T06:43:51.814Z,96.95
2023-05-04T06:44:51.815Z,106.36
2023-05-04T06:45:51.806Z,111.19
2023-05-04T06:46:51.797Z,116.79
2023-05-04T06:47:51.845Z,119.52
2023-05-04T06:48:51.766Z,116.95
2023-05-04T06:49:51.758Z,109.17
2023-05-04T06:50:51.778Z,105.43
2023-05-04T06:51:51.751Z,99.60
2023-05-04T06:52:52.224Z,98.86
2023-05-04T06:53:51.753Z,99.18
2023-05-04T06:54:51.757Z,96.08
2023-05-04T06:55:51.737Z,92.27
2023-05-04T06:56:51.729Z,93.51
2023-05-04T06:57:51.723Z,92.07
2023-05-04T06:58:51.706Z,92.35
2023-05-04T06:59:51.702Z,90.02
2023-05-04T07:00:51.729Z,90.81
2023-05-04T07:01:51.704Z,87.68
2023-05-04T07:02:51.698Z,86.30
2023-05-04T07:03:51.728Z,86.23
2023-05-04T07:04:51.656Z,87.33
2023-05-04T07:05:51.680Z,86.03
2023-05-04T07:06:51.673Z,86.51
2023-05-04T07:07:51.722Z,84.98
2023-05-04T07:08:51.621Z,84.39
2023-05-04T07:09:51.622Z,81.52
2023-05-04T07:10:51.620Z,82.62
2023-05-04T07:11:51.643Z,80.99
2023-05-04T07:12:51.762Z,80.11
2023-05-04T07:13:51.597Z,79.28
2023-05-04T07:14:51.614Z,77.21
2023-05-04T07:15:51.674Z,80.37
2023-05-04T07:16:51.705Z,78.68
2023-05-04T07:17:51.740Z,80.46
2023-05-04T07:18:51.764Z,81.56
2023-05-04T07:19:51.793Z,78.98
2023-05-04T07:20:52.882Z,75.97
2023-05-04T07:21:51.852Z,77.68
2023-05-04T07:22:51.940Z,78.01
2023-05-04T07:23:52.188Z,77.50
2023-05-04T07:24:51.968Z,78.43
2023-05-04T07:25:53.643Z,81.41
2023-05-04T07:26:52.020Z,76.49
2023-05-04T07:27:52.074Z,96.63
2023-05-04T07:28:52.078Z,78.52
2023-05-04T07:29:52.110Z,82.05
2023-05-04T07:30:52.129Z,78.50
2023-05-04T07:31:52.177Z,78.99
2023-05-04T07:32:52.383Z,78.34
2023-05-04T07:33:52.184Z,78.23
2023-05-04T07:34:52.185Z,77.17
2023-05-04T07:35:52.201Z,77.47
2023-05-04T07:36:52.233Z,76.03
2023-05-04T07:37:52.762Z,64.42
2023-05-04T07:38:52.317Z,48.99
2023-05-04T07:39:52.477Z,35.65
2023-05-04T07:40:52.448Z,30.46
2023-05-04T07:41:52.456Z,24.37
2023-05-04T07:42:52.768Z,22.06
2023-05-04T07:43:52.480Z,21.84
2023-05-04T07:44:52.437Z,24.11
2023-05-04T07:45:52.563Z,25.06
2023-05-04T07:46:52.527Z,23.65
2023-05-04T07:47:53.180Z,24.71
2023-05-04T07:48:52.656Z,28.07
2023-05-04T07:49:52.722Z,30.26
2023-05-04T07:50:52.823Z,30.29
2023-05-04T07:51:52.654Z,29.92
2023-05-04T07:52:52.766Z,21.19
2023-05-04T07:53:52.699Z,18.20
2023-05-04T07:54:52.733Z,16.34
2023-05-04T07:55:52.752Z,15.62
2023-05-04T07:56:52.749Z,18.07
2023-05-04T07:57:53.269Z,18.86
2023-05-04T07:58:52.769Z,18.19
2023-05-04T07:59:52.796Z,18.13
2023-05-04T08:00:52.855Z,16.41
2023-05-04T08:01:53.076Z,17.43
2023-05-04T08:02:53.466Z,22.42
2023-05-04T08:03:52.949Z,26.36
2023-05-04T08:04:52.965Z,31.27
2023-05-04T08:05:52.991Z,32.36
2023-05-04T08:06:53.056Z,31.19
2023-05-04T08:07:53.083Z,30.18
2023-05-04T08:08:53.307Z,32.18
2023-05-04T08:09:53.143Z,31.64
2023-05-04T08:10:53.190Z,28.66
2023-05-04T08:11:53.254Z,26.66
2023-05-04T08:12:53.460Z,26.34
2023-05-04T08:13:53.317Z,23.99
2023-05-04T08:14:53.397Z,21.33
2023-05-04T08:15:53.486Z,18.91
2023-05-04T08:16:53.413Z,19.91
2023-05-04T08:17:53.483Z,17.84
2023-05-04T08:18:53.478Z,14.70
2023-05-04T08:19:53.528Z,13.75
2023-05-04T08:20:53.575Z,11.20
2023-05-04T08:21:53.631Z,7.74
2023-05-04T08:22:53.641Z,5.90
2023-05-04T08:23:53.993Z,5.63
2023-05-04T08:24:53.756Z,5.87
2023-05-04T08:25:53.836Z,8.42
2023-05-04T08:27:04.223Z,17.52
2023-05-04T08:27:54.875Z,17.72
2023-05-04T08:28:53.725Z,19.18
2023-05-04T08:29:53.705Z,23.16
2023-05-04T08:30:53.696Z,27.86
2023-05-04T08:31:53.922Z,33.39
2023-05-04T08:32:53.860Z,29.47
2023-05-04T08:33:53.739Z,26.97
2023-05-04T08:34:53.675Z,23.08
2023-05-04T08:35:53.897Z,21.25
2023-05-04T08:36:53.693Z,10.25
2023-05-04T08:37:53.674Z,7.57
2023-05-04T08:38:53.623Z,8.00
2023-05-04T08:39:53.669Z,9.18
2023-05-04T08:40:53.607Z,9.55
2023-05-04T08:41:53.683Z,10.55
2023-05-04T08:42:53.689Z,12.89
2023-05-04T08:43:53.711Z,14.83
2023-05-04T08:44:53.737Z,16.63
2023-05-04T08:45:53.779Z,17.97
2023-05-04T08:46:53.928Z,18.67
2023-05-04T08:47:53.886Z,20.30
2023-05-04T08:48:54.051Z,21.22
2023-05-04T08:49:53.901Z,22.15
2023-05-04T08:50:53.913Z,22.46
2023-05-04T08:51:53.995Z,24.25
2023-05-04T08:52:53.996Z,26.34
2023-05-04T08:53:54.045Z,30.09
2023-05-04T08:54:54.179Z,31.59
2023-05-04T08:55:54.063Z,33.15
2023-05-04T08:56:54.073Z,35.51
2023-05-04T08:57:54.090Z,33.21
2023-05-04T08:58:54.157Z,32.65
2023-05-04T08:59:54.175Z,30.71
2023-05-04T09:00:54.302Z,29.91
2023-05-04T09:01:54.343Z,28.83
2023-05-04T09:02:54.326Z,27.44
2023-05-04T09:03:54.472Z,25.02
2023-05-04T09:04:54.326Z,24.59
2023-05-04T09:05:54.363Z,24.09
2023-05-04T09:06:54.535Z,22.78
2023-05-04T09:07:54.621Z,22.08
2023-05-04T09:08:54.911Z,22.39
2023-05-04T09:09:54.477Z,22.74
2023-05-04T09:10:54.509Z,7.53
2023-05-04T09:11:54.519Z,5.12
2023-05-04T09:12:54.554Z,5.61
2023-05-04T09:13:54.575Z,6.75
2023-05-04T09:14:54.624Z,7.31
2023-05-04T09:15:54.664Z,7.16
2023-05-04T09:16:54.731Z,8.36
2023-05-04T09:17:57.869Z,8.73
2023-05-04T09:18:54.694Z,9.06
2023-05-04T09:19:54.688Z,10.07
2023-05-04T09:20:54.680Z,10.92
2023-05-04T09:21:54.675Z,10.59
2023-05-04T09:22:54.787Z,11.33
2023-05-04T09:23:54.710Z,11.98
2023-05-04T09:24:54.647Z,12.52
2023-05-04T09:25:54.655Z,13.00
2023-05-04T09:26:54.632Z,9.96
2023-05-04T09:27:54.635Z,4.91
2023-05-04T09:28:54.619Z,2.39
2023-05-04T09:29:54.628Z,2.30
2023-05-04T09:30:54.643Z,2.97
2023-05-04T09:31:54.613Z,2.89
2023-05-04T09:32:54.846Z,3.57
2023-05-04T09:33:54.590Z,3.85
2023-05-04T09:34:54.623Z,3.27
2023-05-04T09:35:54.647Z,2.73
2023-05-04T09:36:54.553Z,2.08
2023-05-04T09:37:54.575Z,2.53
2023-05-04T09:38:54.545Z,2.61
2023-05-04T09:39:54.544Z,2.24
2023-05-04T09:40:54.568Z,2.25
2023-05-04T09:41:54.532Z,3.43
2023-05-04T09:42:54.522Z,3.30
2023-05-04T09:43:54.527Z,3.65
2023-05-04T09:44:54.512Z,3.84
2023-05-04T09:45:54.584Z,4.11
2023-05-04T09:46:54.481Z,5.41
2023-05-04T09:47:54.555Z,3.83
2023-05-04T09:48:54.471Z,3.73
2023-05-04T09:49:54.490Z,4.10
2023-05-04T09:50:54.533Z,3.86
2023-05-04T09:51:54.742Z,3.45
2023-05-04T09:52:54.829Z,3.09
2023-05-04T09:53:54.823Z,2.69
2023-05-04T09:54:54.445Z,2.94
2023-05-04T09:55:54.417Z,3.00
2023-05-04T09:56:54.425Z,2.63
2023-05-04T09:57:54.436Z,2.73
2023-05-04T09:58:54.800Z,2.71
2023-05-04T09:59:54.409Z,3.27
2023-05-04T10:00:54.410Z,2.98
2023-05-04T10:01:54.651Z,3.33
2023-05-04T10:02:54.402Z,2.25
2023-05-04T10:03:54.368Z,1.89
2023-05-04T10:04:54.373Z,1.90
2023-05-04T10:05:54.433Z,1.88
2023-05-04T10:06:54.375Z,1.96
2023-05-04T10:07:54.339Z,2.81
2023-05-04T10:08:54.348Z,2.95
2023-05-04T10:09:54.332Z,2.82
2023-05-04T10:10:54.310Z,2.45
2023-05-04T10:11:54.319Z,2.12
2023-05-04T10:12:54.327Z,1.75
2023-05-04T10:13:54.294Z,0.93
2023-05-04T10:14:54.292Z,0.70
2023-05-04T10:15:54.327Z,0.68
2023-05-04T10:16:54.340Z,0.56
2023-05-04T10:17:54.407Z,0.57
2023-05-04T10:18:54.415Z,0.58
2023-05-04T10:19:54.468Z,0.58
2023-05-04T10:20:54.501Z,0.76
2023-05-04T10:21:54.537Z,0.90
2023-05-04T10:22:54.581Z,0.72
2023-05-04T10:25:07.843Z,0.50
2023-05-04T10:26:07.368Z,0.50
2023-05-04T10:27:07.362Z,0.50
2023-05-04T10:28:07.351Z,0.50
2023-05-04T10:29:07.355Z,0.50
2023-05-04T10:30:07.363Z,0.50
2023-05-04T10:31:07.339Z,0.71
2023-05-04T10:32:07.429Z,0.69
2023-05-04T10:33:07.465Z,0.54
2023-05-04T10:34:07.324Z,0.51
2023-05-04T10:35:07.499Z,0.71
2023-05-04T10:36:07.302Z,1.15
2023-05-04T10:37:07.280Z,1.81
2023-05-04T10:38:07.272Z,2.11
2023-05-04T10:39:07.264Z,2.59
2023-05-04T10:40:08.084Z,2.48
2023-05-04T10:41:07.256Z,2.02
2023-05-04T10:42:07.253Z,2.19
2023-05-04T10:43:07.277Z,2.51
2023-05-04T10:44:07.236Z,2.67
2023-05-04T10:45:07.293Z,3.01
2023-05-04T10:46:07.245Z,2.92
2023-05-04T10:47:07.229Z,3.05
2023-05-04T10:48:07.252Z,3.21
2023-05-04T10:49:07.210Z,3.33
2023-05-04T10:50:07.191Z,3.47
2023-05-04T10:51:07.223Z,3.52
2023-05-04T10:52:07.162Z,4.00
2023-05-04T10:53:07.156Z,4.30
2023-05-04T10:54:07.600Z,4.48
2023-05-04T10:55:07.335Z,4.38
2023-05-04T10:56:07.131Z,4.44
2023-05-04T10:57:07.179Z,4.72
2023-05-04T10:58:07.184Z,4.76
2023-05-04T10:59:07.576Z,5.08
2023-05-04T11:00:07.103Z,4.77
2023-05-04T11:01:07.166Z,4.83
2023-05-04T11:02:07.148Z,4.82
2023-05-04T11:03:07.203Z,5.26
2023-05-04T11:04:07.579Z,5.60
2023-05-04T11:05:07.421Z,5.45
2023-05-04T11:06:07.081Z,5.67
2023-05-04T11:07:07.049Z,5.92
2023-05-04T11:08:07.044Z,5.96
2023-05-04T11:09:07.056Z,6.65
2023-05-04T11:10:07.026Z,6.58
2023-05-04T11:11:07.053Z,6.51
2023-05-04T11:12:07.031Z,6.55
2023-05-04T11:13:08.094Z,6.44
2023-05-04T11:14:07.067Z,6.70
2023-05-04T11:15:07.237Z,6.21
2023-05-04T11:16:07.138Z,6.20
2023-05-04T11:17:19.518Z,6.27
2023-05-04T11:18:08.215Z,6.28
2023-05-04T11:19:07.167Z,6.35
2023-05-04T11:20:07.173Z,6.53
2023-05-04T11:21:07.149Z,6.91
2023-05-04T11:22:07.134Z,6.36
2023-05-04T11:23:07.130Z,6.50
2023-05-04T11:24:07.126Z,6.82
2023-05-04T11:25:07.125Z,7.51
2023-05-04T11:26:07.351Z,7.73
2023-05-04T11:27:07.087Z,7.65
2023-05-04T11:28:07.082Z,8.38
2023-05-04T11:29:07.087Z,8.72
2023-05-04T11:30:07.062Z,8.18
2023-05-04T11:31:07.100Z,8.30
2023-05-04T11:32:07.131Z,8.66
2023-05-04T11:33:07.237Z,8.50
2023-05-04T11:34:07.155Z,8.41
2023-05-04T11:35:07.439Z,8.50
2023-05-04T11:36:07.241Z,7.97
2023-05-04T11:37:07.304Z,8.68
2023-05-04T11:38:07.335Z,8.81
2023-05-04T11:39:07.404Z,8.41
2023-05-04T11:40:07.442Z,8.68
2023-05-04T11:41:07.445Z,8.33
2023-05-04T11:42:07.476Z,8.59
2023-05-04T11:43:07.517Z,8.65
2023-05-04T11:44:07.543Z,7.79
2023-05-04T11:45:07.764Z,7.82
2023-05-04T11:46:07.596Z,7.45
2023-05-04T11:47:07.590Z,7.12
2023-05-04T11:48:07.696Z,7.40
2023-05-04T11:49:07.687Z,6.55
2023-05-04T11:50:07.732Z,6.12
2023-05-04T11:51:07.715Z,6.01
2023-05-04T11:52:07.726Z,6.07
2023-05-04T11:53:07.756Z,5.85
2023-05-04T11:54:07.799Z,4.82
2023-05-04T11:55:08.083Z,3.97
2023-05-04T11:56:07.892Z,3.90
2023-05-04T11:57:07.950Z,3.36
2023-05-04T11:58:07.997Z,2.96
2023-05-04T11:59:08.038Z,3.39
2023-05-04T12:00:08.029Z,3.01
2023-05-04T12:01:08.037Z,2.77
2023-05-04T12:02:08.062Z,2.70
2023-05-04T12:03:08.341Z,2.15
2023-05-04T12:04:08.252Z,1.93
2023-05-04T12:05:08.450Z,1.74
2023-05-04T12:06:08.141Z,1.38
2023-05-04T12:07:08.161Z,1.18
2023-05-04T12:08:08.181Z,1.32
2023-05-04T12:09:08.195Z,1.46
2023-05-04T12:10:08.201Z,1.48
2023-05-04T12:11:08.208Z,1.34
2023-05-04T12:12:08.198Z,1.12
2023-05-04T12:13:08.291Z,1.16
2023-05-04T12:14:08.312Z,0.97
2023-05-04T12:15:08.536Z,0.90
2023-05-04T12:16:08.379Z,0.93
2023-05-04T12:17:08.447Z,0.88
2023-05-04T12:18:08.419Z,0.82
2023-05-04T12:19:08.421Z,0.65
2023-05-04T12:20:08.421Z,0.57
2023-05-04T12:21:08.468Z,0.51
2023-05-04T12:22:08.507Z,0.50
2023-05-04T12:23:08.660Z,0.49
2023-05-04T12:24:08.579Z,0.53
2023-05-04T12:25:08.820Z,0.59
2023-05-04T12:26:08.660Z,0.50
2023-05-04T12:27:08.678Z,0.43
2023-05-04T12:28:08.728Z,0.47
2023-05-04T12:29:08.725Z,0.52
2023-05-04T12:30:08.744Z,0.54
2023-05-04T12:31:08.802Z,0.56
2023-05-04T12:32:08.833Z,0.49
2023-05-04T12:33:08.873Z,0.52
2023-05-04T12:34:08.824Z,0.52
2023-05-04T12:35:09.105Z,0.53
2023-05-04T12:36:08.890Z,0.55
2023-05-04T12:37:08.900Z,0.53
2023-05-04T12:38:08.932Z,0.50
2023-05-04T12:39:08.960Z,0.59
2023-05-04T12:40:21.222Z,0.53
2023-05-04T12:41:09.981Z,0.50
2023-05-04T12:42:08.985Z,0.50
2023-05-04T12:43:08.954Z,0.44
2023-05-04T12:44:08.965Z,0.47
2023-05-04T12:45:08.941Z,0.48
2023-05-04T12:46:09.018Z,0.50
2023-05-04T12:47:08.927Z,0.58
2023-05-04T12:48:08.960Z,0.52
2023-05-04T12:49:08.914Z,0.55
2023-05-04T12:50:08.904Z,0.54
2023-05-04T12:51:08.915Z,0.50
2023-05-04T12:52:08.884Z,0.50
2023-05-04T12:53:08.898Z,0.50
2023-05-04T12:54:08.880Z,0.50
2023-05-04T12:55:09.044Z,0.65
2023-05-04T12:56:08.892Z,0.57
2023-05-04T12:57:09.005Z,0.52
2023-05-04T12:58:08.960Z,0.55
2023-05-04T12:59:08.994Z,0.53
2023-05-04T13:00:08.995Z,0.51